sensor_id;sensor_type;location;lat;lon;timestamp;pressure;altitude;pressure_sealevel;temperature
66170;BMP280;66757;44.024;20.456;2023-01-24T00:00:10;98988.84;;;6.78
66170;BMP280;66757;44.024;20.456;2023-01-24T00:02:36;98990.69;;;6.77
66170;BMP280;66757;44.024;20.456;2023-01-24T00:05:02;98990.81;;;6.44
66170;BMP280;66757;44.024;20.456;2023-01-24T00:07:27;98982.72;;;6.72
66170;BMP280;66757;44.024;20.456;2023-01-24T00:09:52;98977.31;;;6.62
66170;BMP280;66757;44.024;20.456;2023-01-24T00:12:18;98982.19;;;6.70
66170;BMP280;66757;44.024;20.456;2023-01-24T00:14:43;98989.81;;;6.50
66170;BMP280;66757;44.024;20.456;2023-01-24T00:17:08;98970.69;;;6.16
66170;BMP280;66757;44.024;20.456;2023-01-24T00:19:34;98981.94;;;6.33
66170;BMP280;66757;44.024;20.456;2023-01-24T00:22:02;98983.94;;;6.43
66170;BMP280;66757;44.024;20.456;2023-01-24T00:24:28;98983.19;;;6.25
66170;BMP280;66757;44.024;20.456;2023-01-24T00:26:55;98989.41;;;6.19
66170;BMP280;66757;44.024;20.456;2023-01-24T00:29:21;98983.53;;;6.12
66170;BMP280;66757;44.024;20.456;2023-01-24T00:31:46;98988.78;;;6.29
66170;BMP280;66757;44.024;20.456;2023-01-24T00:34:12;98994.19;;;6.22
66170;BMP280;66757;44.024;20.456;2023-01-24T00:36:37;98992.31;;;6.01
66170;BMP280;66757;44.024;20.456;2023-01-24T00:39:03;98995.56;;;6.08
66170;BMP280;66757;44.024;20.456;2023-01-24T00:41:28;98998.19;;;6.08
66170;BMP280;66757;44.024;20.456;2023-01-24T00:43:55;98997.16;;;6.26
66170;BMP280;66757;44.024;20.456;2023-01-24T00:46:20;98998.50;;;6.29
66170;BMP280;66757;44.024;20.456;2023-01-24T00:48:46;98998.63;;;6.00
66170;BMP280;66757;44.024;20.456;2023-01-24T00:51:11;99007.81;;;5.81
66170;BMP280;66757;44.024;20.456;2023-01-24T00:53:37;99014.78;;;5.92
66170;BMP280;66757;44.024;20.456;2023-01-24T00:56:02;99004.22;;;5.87
66170;BMP280;66757;44.024;20.456;2023-01-24T00:58:28;99000.69;;;5.98
66170;BMP280;66757;44.024;20.456;2023-01-24T01:00:56;99002.34;;;6.04
66170;BMP280;66757;44.024;20.456;2023-01-24T01:03:23;99010.25;;;6.04
66170;BMP280;66757;44.024;20.456;2023-01-24T01:05:49;99008.72;;;5.91
66170;BMP280;66757;44.024;20.456;2023-01-24T01:08:14;99009.53;;;5.75
66170;BMP280;66757;44.024;20.456;2023-01-24T01:10:40;99006.44;;;5.95
66170;BMP280;66757;44.024;20.456;2023-01-24T01:13:06;98997.03;;;5.99
66170;BMP280;66757;44.024;20.456;2023-01-24T01:15:32;99000.44;;;6.16
66170;BMP280;66757;44.024;20.456;2023-01-24T01:17:58;99008.84;;;6.35
66170;BMP280;66757;44.024;20.456;2023-01-24T01:20:24;99013.41;;;6.40
66170;BMP280;66757;44.024;20.456;2023-01-24T01:22:49;99011.25;;;6.37
66170;BMP280;66757;44.024;20.456;2023-01-24T01:25:15;99004.06;;;6.32
66170;BMP280;66757;44.024;20.456;2023-01-24T01:27:40;99004.25;;;6.09
66170;BMP280;66757;44.024;20.456;2023-01-24T01:30:06;99010.72;;;6.18
66170;BMP280;66757;44.024;20.456;2023-01-24T01:32:32;99008.50;;;5.93
66170;BMP280;66757;44.024;20.456;2023-01-24T01:34:58;99006.28;;;6.02
66170;BMP280;66757;44.024;20.456;2023-01-24T01:37:23;99016.81;;;5.85
66170;BMP280;66757;44.024;20.456;2023-01-24T01:39:49;99011.25;;;6.20
66170;BMP280;66757;44.024;20.456;2023-01-24T01:42:15;99023.97;;;6.06
66170;BMP280;66757;44.024;20.456;2023-01-24T01:44:40;99021.34;;;6.06
66170;BMP280;66757;44.024;20.456;2023-01-24T01:49:49;99023.25;;;6.28
66170;BMP280;66757;44.024;20.456;2023-01-24T01:52:16;99019.50;;;5.90
66170;BMP280;66757;44.024;20.456;2023-01-24T01:54:43;99016.69;;;5.63
66170;BMP280;66757;44.024;20.456;2023-01-24T01:57:20;99021.56;;;5.54
66170;BMP280;66757;44.024;20.456;2023-01-24T01:59:57;99031.94;;;5.94
66170;BMP280;66757;44.024;20.456;2023-01-24T02:02:23;99032.84;;;5.83
66170;BMP280;66757;44.024;20.456;2023-01-24T02:04:56;99023.09;;;5.67
66170;BMP280;66757;44.024;20.456;2023-01-24T02:10:02;99035.63;;;6.27
66170;BMP280;66757;44.024;20.456;2023-01-24T02:12:30;99032.44;;;5.91
66170;BMP280;66757;44.024;20.456;2023-01-24T02:15:00;99036.38;;;5.89
66170;BMP280;66757;44.024;20.456;2023-01-24T02:17:45;99026.38;;;5.46
66170;BMP280;66757;44.024;20.456;2023-01-24T02:26:17;99037.13;;;5.56
66170;BMP280;66757;44.024;20.456;2023-01-24T02:29:09;99038.72;;;5.90
66170;BMP280;66757;44.024;20.456;2023-01-24T02:31:55;99033.47;;;6.24
66170;BMP280;66757;44.024;20.456;2023-01-24T02:34:21;99037.72;;;6.25
66170;BMP280;66757;44.024;20.456;2023-01-24T02:36:55;99049.34;;;5.79
66170;BMP280;66757;44.024;20.456;2023-01-24T02:39:28;99036.28;;;5.84
66170;BMP280;66757;44.024;20.456;2023-01-24T02:41:58;99037.47;;;6.27
66170;BMP280;66757;44.024;20.456;2023-01-24T02:45:34;99035.38;;;6.45
66170;BMP280;66757;44.024;20.456;2023-01-24T02:47:30;99039.13;;;6.33
66170;BMP280;66757;44.024;20.456;2023-01-24T02:50:01;99037.03;;;6.35
66170;BMP280;66757;44.024;20.456;2023-01-24T02:52:27;99041.94;;;6.43
66170;BMP280;66757;44.024;20.456;2023-01-24T02:55:11;99044.03;;;6.46
66170;BMP280;66757;44.024;20.456;2023-01-24T02:57:36;99041.50;;;6.34
66170;BMP280;66757;44.024;20.456;2023-01-24T03:00:20;99044.56;;;6.09
66170;BMP280;66757;44.024;20.456;2023-01-24T03:02:45;99044.56;;;5.92
66170;BMP280;66757;44.024;20.456;2023-01-24T03:05:11;99050.31;;;5.44
66170;BMP280;66757;44.024;20.456;2023-01-24T03:07:36;99047.28;;;5.81
66170;BMP280;66757;44.024;20.456;2023-01-24T03:10:17;99044.00;;;5.74
66170;BMP280;66757;44.024;20.456;2023-01-24T03:12:43;99051.03;;;5.85
66170;BMP280;66757;44.024;20.456;2023-01-24T03:15:27;99042.91;;;5.86
66170;BMP280;66757;44.024;20.456;2023-01-24T03:18:11;99047.38;;;5.41
66170;BMP280;66757;44.024;20.456;2023-01-24T03:20:55;99039.22;;;5.71
66170;BMP280;66757;44.024;20.456;2023-01-24T03:23:39;99051.38;;;5.88
66170;BMP280;66757;44.024;20.456;2023-01-24T03:26:24;99047.13;;;5.71
66170;BMP280;66757;44.024;20.456;2023-01-24T03:29:09;99044.59;;;5.64
66170;BMP280;66757;44.024;20.456;2023-01-24T03:31:54;99044.50;;;5.59
66170;BMP280;66757;44.024;20.456;2023-01-24T03:34:39;99049.75;;;5.71
66170;BMP280;66757;44.024;20.456;2023-01-24T03:37:18;99056.75;;;5.65
66170;BMP280;66757;44.024;20.456;2023-01-24T03:40:05;99058.09;;;5.51
66170;BMP280;66757;44.024;20.456;2023-01-24T03:42:32;99050.31;;;5.73
66170;BMP280;66757;44.024;20.456;2023-01-24T03:44:58;99055.75;;;5.83
66170;BMP280;66757;44.024;20.456;2023-01-24T03:47:26;99050.84;;;5.58
66170;BMP280;66757;44.024;20.456;2023-01-24T03:49:51;99041.19;;;5.64
66170;BMP280;66757;44.024;20.456;2023-01-24T03:52:35;99044.66;;;5.81
66170;BMP280;66757;44.024;20.456;2023-01-24T03:55:01;99043.75;;;5.92
66170;BMP280;66757;44.024;20.456;2023-01-24T03:57:28;99045.22;;;6.00
66170;BMP280;66757;44.024;20.456;2023-01-24T03:59:54;99035.84;;;5.92
66170;BMP280;66757;44.024;20.456;2023-01-24T04:02:20;99046.63;;;5.90
66170;BMP280;66757;44.024;20.456;2023-01-24T04:04:46;99055.06;;;5.76
66170;BMP280;66757;44.024;20.456;2023-01-24T04:07:31;99052.94;;;5.73
66170;BMP280;66757;44.024;20.456;2023-01-24T04:09:56;99048.88;;;5.82
66170;BMP280;66757;44.024;20.456;2023-01-24T04:12:25;99044.31;;;5.94
66170;BMP280;66757;44.024;20.456;2023-01-24T04:14:51;99047.41;;;5.57
66170;BMP280;66757;44.024;20.456;2023-01-24T04:17:17;99049.22;;;5.85
66170;BMP280;66757;44.024;20.456;2023-01-24T04:19:42;99056.38;;;5.90
66170;BMP280;66757;44.024;20.456;2023-01-24T04:22:08;99050.06;;;5.91
66170;BMP280;66757;44.024;20.456;2023-01-24T04:24:33;99048.28;;;5.80
66170;BMP280;66757;44.024;20.456;2023-01-24T04:26:58;99048.13;;;5.53
66170;BMP280;66757;44.024;20.456;2023-01-24T04:29:24;99049.09;;;5.07
66170;BMP280;66757;44.024;20.456;2023-01-24T04:31:49;99052.00;;;4.82
66170;BMP280;66757;44.024;20.456;2023-01-24T04:34:15;99058.19;;;5.16
66170;BMP280;66757;44.024;20.456;2023-01-24T04:36:40;99062.59;;;4.75
66170;BMP280;66757;44.024;20.456;2023-01-24T04:39:06;99060.91;;;4.92
66170;BMP280;66757;44.024;20.456;2023-01-24T04:41:31;99055.75;;;4.86
66170;BMP280;66757;44.024;20.456;2023-01-24T04:43:57;99055.97;;;4.84
66170;BMP280;66757;44.024;20.456;2023-01-24T04:46:22;99062.47;;;4.93
66170;BMP280;66757;44.024;20.456;2023-01-24T04:48:48;99058.41;;;5.26
66170;BMP280;66757;44.024;20.456;2023-01-24T04:51:13;99063.78;;;5.19
66170;BMP280;66757;44.024;20.456;2023-01-24T04:53:39;99062.88;;;5.25
66170;BMP280;66757;44.024;20.456;2023-01-24T04:56:05;99064.06;;;5.35
66170;BMP280;66757;44.024;20.456;2023-01-24T04:58:31;99064.22;;;5.28
66170;BMP280;66757;44.024;20.456;2023-01-24T05:00:57;99071.84;;;5.41
66170;BMP280;66757;44.024;20.456;2023-01-24T05:03:23;99066.03;;;5.39
66170;BMP280;66757;44.024;20.456;2023-01-24T05:05:52;99071.09;;;5.57
66170;BMP280;66757;44.024;20.456;2023-01-24T05:08:19;99068.25;;;5.47
66170;BMP280;66757;44.024;20.456;2023-01-24T05:10:45;99068.13;;;5.25
66170;BMP280;66757;44.024;20.456;2023-01-24T05:13:11;99078.72;;;4.90
66170;BMP280;66757;44.024;20.456;2023-01-24T05:15:36;99082.84;;;4.86
66170;BMP280;66757;44.024;20.456;2023-01-24T05:18:02;99075.31;;;4.67
66170;BMP280;66757;44.024;20.456;2023-01-24T05:20:28;99077.47;;;4.58
66170;BMP280;66757;44.024;20.456;2023-01-24T05:22:57;99095.88;;;4.93
66170;BMP280;66757;44.024;20.456;2023-01-24T05:25:23;99094.34;;;5.20
66170;BMP280;66757;44.024;20.456;2023-01-24T05:27:49;99093.31;;;4.98
66170;BMP280;66757;44.024;20.456;2023-01-24T05:30:15;99094.84;;;5.34
66170;BMP280;66757;44.024;20.456;2023-01-24T05:32:40;99095.44;;;5.36
66170;BMP280;66757;44.024;20.456;2023-01-24T05:35:06;99098.25;;;4.83
66170;BMP280;66757;44.024;20.456;2023-01-24T05:37:32;99107.19;;;4.70
66170;BMP280;66757;44.024;20.456;2023-01-24T05:39:58;99105.59;;;4.92
66170;BMP280;66757;44.024;20.456;2023-01-24T05:42:23;99107.84;;;5.01
66170;BMP280;66757;44.024;20.456;2023-01-24T05:44:49;99110.84;;;4.92
66170;BMP280;66757;44.024;20.456;2023-01-24T05:47:14;99113.91;;;5.01
66170;BMP280;66757;44.024;20.456;2023-01-24T05:49:39;99110.94;;;4.97
66170;BMP280;66757;44.024;20.456;2023-01-24T05:52:05;99113.94;;;4.78
66170;BMP280;66757;44.024;20.456;2023-01-24T05:54:30;99121.22;;;4.99
66170;BMP280;66757;44.024;20.456;2023-01-24T05:56:56;99115.41;;;4.85
66170;BMP280;66757;44.024;20.456;2023-01-24T05:59:21;99123.16;;;4.34
66170;BMP280;66757;44.024;20.456;2023-01-24T06:01:47;99120.78;;;4.55
66170;BMP280;66757;44.024;20.456;2023-01-24T06:04:12;99119.75;;;4.56
66170;BMP280;66757;44.024;20.456;2023-01-24T06:06:38;99122.59;;;4.78
66170;BMP280;66757;44.024;20.456;2023-01-24T06:09:03;99126.72;;;4.74
66170;BMP280;66757;44.024;20.456;2023-01-24T06:11:29;99130.72;;;4.65
66170;BMP280;66757;44.024;20.456;2023-01-24T06:13:55;99126.84;;;4.56
66170;BMP280;66757;44.024;20.456;2023-01-24T06:16:24;99129.81;;;4.48
66170;BMP280;66757;44.024;20.456;2023-01-24T06:18:53;99135.41;;;4.63
66170;BMP280;66757;44.024;20.456;2023-01-24T06:21:45;99144.16;;;4.57
66170;BMP280;66757;44.024;20.456;2023-01-24T06:24:20;99141.22;;;4.65
66170;BMP280;66757;44.024;20.456;2023-01-24T06:26:47;99139.41;;;4.89
66170;BMP280;66757;44.024;20.456;2023-01-24T06:29:15;99145.22;;;4.79
66170;BMP280;66757;44.024;20.456;2023-01-24T06:37:49;99156.31;;;4.70
66170;BMP280;66757;44.024;20.456;2023-01-24T06:40:17;99156.09;;;4.71
66170;BMP280;66757;44.024;20.456;2023-01-24T06:42:43;99159.28;;;4.50
66170;BMP280;66757;44.024;20.456;2023-01-24T06:45:09;99159.94;;;4.34
66170;BMP280;66757;44.024;20.456;2023-01-24T06:47:35;99171.84;;;4.48
66170;BMP280;66757;44.024;20.456;2023-01-24T06:50:01;99172.94;;;4.40
66170;BMP280;66757;44.024;20.456;2023-01-24T06:52:27;99173.16;;;4.39
66170;BMP280;66757;44.024;20.456;2023-01-24T06:54:52;99174.66;;;4.58
66170;BMP280;66757;44.024;20.456;2023-01-24T06:57:18;99175.75;;;4.69
66170;BMP280;66757;44.024;20.456;2023-01-24T06:59:43;99175.50;;;4.70
66170;BMP280;66757;44.024;20.456;2023-01-24T07:02:09;99176.53;;;4.69
66170;BMP280;66757;44.024;20.456;2023-01-24T07:04:35;99184.66;;;3.96
66170;BMP280;66757;44.024;20.456;2023-01-24T07:07:02;99186.09;;;4.10
66170;BMP280;66757;44.024;20.456;2023-01-24T07:09:27;99181.22;;;4.25
66170;BMP280;66757;44.024;20.456;2023-01-24T07:11:53;99182.31;;;4.36
66170;BMP280;66757;44.024;20.456;2023-01-24T07:14:21;99185.00;;;4.29
66170;BMP280;66757;44.024;20.456;2023-01-24T07:16:48;99195.75;;;4.28
66170;BMP280;66757;44.024;20.456;2023-01-24T07:19:19;99189.44;;;4.17
66170;BMP280;66757;44.024;20.456;2023-01-24T07:21:47;99200.13;;;4.46
66170;BMP280;66757;44.024;20.456;2023-01-24T07:24:15;99198.00;;;4.24
66170;BMP280;66757;44.024;20.456;2023-01-24T07:26:41;99204.53;;;3.92
66170;BMP280;66757;44.024;20.456;2023-01-24T07:29:07;99209.19;;;3.90
66170;BMP280;66757;44.024;20.456;2023-01-24T07:31:32;99215.13;;;3.97
66170;BMP280;66757;44.024;20.456;2023-01-24T07:33:58;99208.69;;;4.11
66170;BMP280;66757;44.024;20.456;2023-01-24T07:36:23;99210.63;;;4.04
66170;BMP280;66757;44.024;20.456;2023-01-24T07:38:52;99214.41;;;4.08
66170;BMP280;66757;44.024;20.456;2023-01-24T07:41:18;99215.56;;;4.12
66170;BMP280;66757;44.024;20.456;2023-01-24T07:43:43;99215.25;;;4.20
66170;BMP280;66757;44.024;20.456;2023-01-24T07:46:09;99216.34;;;4.13
66170;BMP280;66757;44.024;20.456;2023-01-24T07:48:34;99215.06;;;3.85
66170;BMP280;66757;44.024;20.456;2023-01-24T07:51:00;99220.53;;;4.02
66170;BMP280;66757;44.024;20.456;2023-01-24T07:53:26;99231.22;;;4.19
66170;BMP280;66757;44.024;20.456;2023-01-24T07:55:52;99217.41;;;3.93
66170;BMP280;66757;44.024;20.456;2023-01-24T07:58:17;99231.56;;;3.92
66170;BMP280;66757;44.024;20.456;2023-01-24T08:00:42;99232.03;;;4.01
66170;BMP280;66757;44.024;20.456;2023-01-24T08:03:09;99226.31;;;3.92
66170;BMP280;66757;44.024;20.456;2023-01-24T08:05:38;99228.53;;;4.07
66170;BMP280;66757;44.024;20.456;2023-01-24T08:08:03;99231.84;;;4.03
66170;BMP280;66757;44.024;20.456;2023-01-24T08:10:29;99231.56;;;3.92
66170;BMP280;66757;44.024;20.456;2023-01-24T08:12:55;99238.16;;;4.13
66170;BMP280;66757;44.024;20.456;2023-01-24T08:15:21;99237.66;;;3.86
66170;BMP280;66757;44.024;20.456;2023-01-24T08:17:48;99248.59;;;3.83
66170;BMP280;66757;44.024;20.456;2023-01-24T08:20:14;99245.75;;;4.03
66170;BMP280;66757;44.024;20.456;2023-01-24T08:22:40;99242.47;;;4.08
66170;BMP280;66757;44.024;20.456;2023-01-24T08:25:07;99253.09;;;4.43
66170;BMP280;66757;44.024;20.456;2023-01-24T08:27:33;99252.44;;;4.17
66170;BMP280;66757;44.024;20.456;2023-01-24T08:29:58;99252.75;;;4.09
66170;BMP280;66757;44.024;20.456;2023-01-24T08:32:24;99254.63;;;4.20
66170;BMP280;66757;44.024;20.456;2023-01-24T08:34:50;99255.50;;;4.32
66170;BMP280;66757;44.024;20.456;2023-01-24T08:37:16;99250.38;;;4.38
66170;BMP280;66757;44.024;20.456;2023-01-24T08:39:41;99263.78;;;4.29
66170;BMP280;66757;44.024;20.456;2023-01-24T08:42:07;99264.94;;;4.52
66170;BMP280;66757;44.024;20.456;2023-01-24T08:44:33;99267.19;;;4.60
66170;BMP280;66757;44.024;20.456;2023-01-24T08:46:58;99264.47;;;4.55
66170;BMP280;66757;44.024;20.456;2023-01-24T08:49:24;99266.81;;;4.86
66170;BMP280;66757;44.024;20.456;2023-01-24T08:51:49;99269.59;;;4.50
66170;BMP280;66757;44.024;20.456;2023-01-24T08:54:27;99263.88;;;4.23
66170;BMP280;66757;44.024;20.456;2023-01-24T08:56:52;99273.31;;;4.42
66170;BMP280;66757;44.024;20.456;2023-01-24T08:59:18;99275.34;;;4.10
66170;BMP280;66757;44.024;20.456;2023-01-24T09:01:44;99281.31;;;4.17
66170;BMP280;66757;44.024;20.456;2023-01-24T09:04:11;99272.78;;;4.22
66170;BMP280;66757;44.024;20.456;2023-01-24T09:06:36;99281.41;;;4.41
66170;BMP280;66757;44.024;20.456;2023-01-24T09:09:02;99287.59;;;4.35
66170;BMP280;66757;44.024;20.456;2023-01-24T09:11:29;99291.94;;;4.41
66170;BMP280;66757;44.024;20.456;2023-01-24T09:13:55;99282.06;;;4.54
66170;BMP280;66757;44.024;20.456;2023-01-24T09:16:20;99294.44;;;4.17
66170;BMP280;66757;44.024;20.456;2023-01-24T09:18:47;99289.19;;;4.36
66170;BMP280;66757;44.024;20.456;2023-01-24T09:21:14;99290.78;;;4.00
66170;BMP280;66757;44.024;20.456;2023-01-24T09:23:40;99287.81;;;4.15
66170;BMP280;66757;44.024;20.456;2023-01-24T09:26:05;99289.56;;;4.21
66170;BMP280;66757;44.024;20.456;2023-01-24T09:28:31;99284.81;;;4.29
66170;BMP280;66757;44.024;20.456;2023-01-24T09:30:57;99287.38;;;4.18
66170;BMP280;66757;44.024;20.456;2023-01-24T09:33:23;99285.81;;;4.28
66170;BMP280;66757;44.024;20.456;2023-01-24T09:35:57;99283.44;;;4.27
66170;BMP280;66757;44.024;20.456;2023-01-24T09:38:25;99284.00;;;4.29
66170;BMP280;66757;44.024;20.456;2023-01-24T09:41:02;99279.06;;;4.21
66170;BMP280;66757;44.024;20.456;2023-01-24T09:43:51;99273.66;;;4.46
66170;BMP280;66757;44.024;20.456;2023-01-24T09:48:58;99279.72;;;4.76
66170;BMP280;66757;44.024;20.456;2023-01-24T09:51:28;99278.00;;;4.70
66170;BMP280;66757;44.024;20.456;2023-01-24T09:53:58;99276.53;;;4.86
66170;BMP280;66757;44.024;20.456;2023-01-24T09:56:27;99273.66;;;4.46
66170;BMP280;66757;44.024;20.456;2023-01-24T09:59:20;99276.41;;;4.69
66170;BMP280;66757;44.024;20.456;2023-01-24T10:01:46;99275.03;;;4.37
66170;BMP280;66757;44.024;20.456;2023-01-24T10:07:09;99271.78;;;4.53
66170;BMP280;66757;44.024;20.456;2023-01-24T10:23:18;99253.50;;;4.58
66170;BMP280;66757;44.024;20.456;2023-01-24T10:28:35;99243.09;;;5.40
66170;BMP280;66757;44.024;20.456;2023-01-24T10:31:08;99246.38;;;5.58
66170;BMP280;66757;44.024;20.456;2023-01-24T10:33:41;99247.31;;;5.52
66170;BMP280;66757;44.024;20.456;2023-01-24T10:36:45;99242.94;;;5.46
66170;BMP280;66757;44.024;20.456;2023-01-24T10:39:13;99240.66;;;5.03
66170;BMP280;66757;44.024;20.456;2023-01-24T10:41:39;99239.19;;;5.31
66170;BMP280;66757;44.024;20.456;2023-01-24T10:47:00;99238.47;;;5.47
66170;BMP280;66757;44.024;20.456;2023-01-24T10:49:33;99226.63;;;5.21
66170;BMP280;66757;44.024;20.456;2023-01-24T10:54:48;99232.00;;;5.26
66170;BMP280;66757;44.024;20.456;2023-01-24T10:57:40;99228.56;;;5.14
66170;BMP280;66757;44.024;20.456;2023-01-24T11:00:27;99227.16;;;5.46
66170;BMP280;66757;44.024;20.456;2023-01-24T11:02:59;99227.63;;;4.85
66170;BMP280;66757;44.024;20.456;2023-01-24T11:05:34;99223.09;;;5.27
66170;BMP280;66757;44.024;20.456;2023-01-24T11:08:00;99213.72;;;5.08
66170;BMP280;66757;44.024;20.456;2023-01-24T11:10:28;99218.97;;;5.08
66170;BMP280;66757;44.024;20.456;2023-01-24T11:12:59;99218.03;;;4.90
66170;BMP280;66757;44.024;20.456;2023-01-24T11:15:29;99220.47;;;4.92
66170;BMP280;66757;44.024;20.456;2023-01-24T11:17:58;99214.56;;;4.25
66170;BMP280;66757;44.024;20.456;2023-01-24T11:20:30;99204.66;;;4.69
66170;BMP280;66757;44.024;20.456;2023-01-24T11:23:02;99202.59;;;4.82
66170;BMP280;66757;44.024;20.456;2023-01-24T11:25:28;99198.16;;;4.94
66170;BMP280;66757;44.024;20.456;2023-01-24T11:27:53;99206.13;;;4.76
66170;BMP280;66757;44.024;20.456;2023-01-24T11:30:20;99198.25;;;4.88
66170;BMP280;66757;44.024;20.456;2023-01-24T11:35:52;99204.19;;;5.30
66170;BMP280;66757;44.024;20.456;2023-01-24T11:38:24;99202.97;;;5.21
66170;BMP280;66757;44.024;20.456;2023-01-24T11:41:15;99208.88;;;4.70
66170;BMP280;66757;44.024;20.456;2023-01-24T11:46:56;99201.47;;;5.02
66170;BMP280;66757;44.024;20.456;2023-01-24T11:52:13;99199.16;;;4.93
66170;BMP280;66757;44.024;20.456;2023-01-24T11:57:44;99201.69;;;4.88
66170;BMP280;66757;44.024;20.456;2023-01-24T12:03:00;99197.34;;;4.71
66170;BMP280;66757;44.024;20.456;2023-01-24T12:05:40;99204.56;;;4.45
66170;BMP280;66757;44.024;20.456;2023-01-24T12:13:46;99199.31;;;4.45
66170;BMP280;66757;44.024;20.456;2023-01-24T12:16:36;99196.63;;;4.75
66170;BMP280;66757;44.024;20.456;2023-01-24T12:22:14;99199.41;;;4.80
66170;BMP280;66757;44.024;20.456;2023-01-24T12:24:43;99201.31;;;4.50
66170;BMP280;66757;44.024;20.456;2023-01-24T12:27:18;99198.78;;;4.55
66170;BMP280;66757;44.024;20.456;2023-01-24T12:30:06;99190.69;;;4.68
66170;BMP280;66757;44.024;20.456;2023-01-24T12:32:57;99194.25;;;4.85
66170;BMP280;66757;44.024;20.456;2023-01-24T12:35:33;99188.75;;;4.22
66170;BMP280;66757;44.024;20.456;2023-01-24T12:45:36;99197.00;;;4.90
66170;BMP280;66757;44.024;20.456;2023-01-24T12:51:32;99194.38;;;4.90
66170;BMP280;66757;44.024;20.456;2023-01-24T12:54:28;99202.59;;;4.82
66170;BMP280;66757;44.024;20.456;2023-01-24T12:57:04;99197.69;;;4.74
66170;BMP280;66757;44.024;20.456;2023-01-24T12:59:33;99196.44;;;4.77
66170;BMP280;66757;44.024;20.456;2023-01-24T13:07:35;99195.50;;;4.71
66170;BMP280;66757;44.024;20.456;2023-01-24T13:10:21;99201.25;;;4.91
66170;BMP280;66757;44.024;20.456;2023-01-24T13:12:49;99199.50;;;4.62
66170;BMP280;66757;44.024;20.456;2023-01-24T13:15:24;99203.56;;;4.58
66170;BMP280;66757;44.024;20.456;2023-01-24T13:23:29;99199.03;;;4.65
66170;BMP280;66757;44.024;20.456;2023-01-24T13:26:05;99202.91;;;4.62
66170;BMP280;66757;44.024;20.456;2023-01-24T13:33:55;99211.84;;;4.85
66170;BMP280;66757;44.024;20.456;2023-01-24T13:36:25;99214.16;;;5.05
66170;BMP280;66757;44.024;20.456;2023-01-24T13:38:55;99208.19;;;4.86
66170;BMP280;66757;44.024;20.456;2023-01-24T13:51:53;99206.41;;;5.10
66170;BMP280;66757;44.024;20.456;2023-01-24T13:54:39;99218.63;;;4.92
66170;BMP280;66757;44.024;20.456;2023-01-24T14:08:01;99219.88;;;5.02
66170;BMP280;66757;44.024;20.456;2023-01-24T14:10:34;99212.09;;;4.95
66170;BMP280;66757;44.024;20.456;2023-01-24T14:13:00;99221.34;;;4.97
66170;BMP280;66757;44.024;20.456;2023-01-24T14:15:28;99229.66;;;4.71
66170;BMP280;66757;44.024;20.456;2023-01-24T14:17:56;99234.13;;;4.82
66170;BMP280;66757;44.024;20.456;2023-01-24T14:20:23;99235.50;;;4.31
66170;BMP280;66757;44.024;20.456;2023-01-24T14:22:57;99245.34;;;4.36
66170;BMP280;66757;44.024;20.456;2023-01-24T14:25:44;99236.47;;;4.60
66170;BMP280;66757;44.024;20.456;2023-01-24T14:28:28;99234.13;;;4.82
66170;BMP280;66757;44.024;20.456;2023-01-24T14:30:58;99241.22;;;4.40
66170;BMP280;66757;44.024;20.456;2023-01-24T14:33:48;99242.22;;;4.69
66170;BMP280;66757;44.024;20.456;2023-01-24T14:36:23;99242.81;;;4.41
66170;BMP280;66757;44.024;20.456;2023-01-24T14:39:21;99243.34;;;4.61
66170;BMP280;66757;44.024;20.456;2023-01-24T14:41:51;99246.53;;;4.52
66170;BMP280;66757;44.024;20.456;2023-01-24T14:44:27;99245.00;;;4.32
66170;BMP280;66757;44.024;20.456;2023-01-24T14:46:57;99245.75;;;4.63
66170;BMP280;66757;44.024;20.456;2023-01-24T14:51:56;99248.13;;;5.06
66170;BMP280;66757;44.024;20.456;2023-01-24T14:54:23;99248.28;;;4.70
66170;BMP280;66757;44.024;20.456;2023-01-24T14:56:49;99241.56;;;4.97
66170;BMP280;66757;44.024;20.456;2023-01-24T14:59:20;99248.56;;;4.91
66170;BMP280;66757;44.024;20.456;2023-01-24T15:01:49;99247.72;;;4.79
66170;BMP280;66757;44.024;20.456;2023-01-24T15:04:27;99248.66;;;4.96
66170;BMP280;66757;44.024;20.456;2023-01-24T15:09:29;99248.31;;;5.05
66170;BMP280;66757;44.024;20.456;2023-01-24T15:11:55;99258.34;;;4.73
66170;BMP280;66757;44.024;20.456;2023-01-24T15:14:20;99261.34;;;4.88
66170;BMP280;66757;44.024;20.456;2023-01-24T15:16:51;99262.44;;;4.69
66170;BMP280;66757;44.024;20.456;2023-01-24T15:19:25;99257.66;;;4.77
66170;BMP280;66757;44.024;20.456;2023-01-24T15:21:53;99260.88;;;4.79
66170;BMP280;66757;44.024;20.456;2023-01-24T15:24:22;99268.38;;;5.06
66170;BMP280;66757;44.024;20.456;2023-01-24T15:26:49;99274.34;;;4.71
66170;BMP280;66757;44.024;20.456;2023-01-24T15:32:19;99269.66;;;4.73
66170;BMP280;66757;44.024;20.456;2023-01-24T15:34:45;99265.47;;;4.95
66170;BMP280;66757;44.024;20.456;2023-01-24T15:37:13;99272.78;;;4.93
66170;BMP280;66757;44.024;20.456;2023-01-24T15:39:40;99272.25;;;4.61
66170;BMP280;66757;44.024;20.456;2023-01-24T15:42:14;99282.63;;;4.26
66170;BMP280;66757;44.024;20.456;2023-01-24T15:44:58;99278.47;;;4.79
66170;BMP280;66757;44.024;20.456;2023-01-24T15:47:25;99273.03;;;4.50
66170;BMP280;66757;44.024;20.456;2023-01-24T15:50:22;99278.97;;;4.57
66170;BMP280;66757;44.024;20.456;2023-01-24T15:53:27;99273.97;;;4.56
66170;BMP280;66757;44.024;20.456;2023-01-24T15:55:54;99268.50;;;4.39
66170;BMP280;66757;44.024;20.456;2023-01-24T15:58:20;99270.13;;;4.40
66170;BMP280;66757;44.024;20.456;2023-01-24T16:00:56;99271.25;;;4.74
66170;BMP280;66757;44.024;20.456;2023-01-24T16:03:23;99269.50;;;4.56
66170;BMP280;66757;44.024;20.456;2023-01-24T16:05:49;99276.34;;;4.27
66170;BMP280;66757;44.024;20.456;2023-01-24T16:08:15;99277.94;;;4.28
66170;BMP280;66757;44.024;20.456;2023-01-24T16:10:41;99280.16;;;4.13
66170;BMP280;66757;44.024;20.456;2023-01-24T16:15:46;99278.13;;;4.15
66170;BMP280;66757;44.024;20.456;2023-01-24T16:18:11;99278.75;;;4.59
66170;BMP280;66757;44.024;20.456;2023-01-24T16:20:38;99278.56;;;4.42
66170;BMP280;66757;44.024;20.456;2023-01-24T16:23:03;99278.97;;;4.57
66170;BMP280;66757;44.024;20.456;2023-01-24T16:25:29;99284.03;;;4.41
66170;BMP280;66757;44.024;20.456;2023-01-24T16:27:54;99289.25;;;4.29
66170;BMP280;66757;44.024;20.456;2023-01-24T16:30:23;99289.78;;;4.38